Time;durP1;ratioP1;P1;durP2;ratioP2;P2;SDS_P1;SDS_P2;PMS_P1;PMS_P2;Temp;Humidity;BMP_temperature;BMP_pressure;BME280_temperature;BME280_humidity;BME280_pressure;Samples;Min_cycle;Max_cycle;Signal;HPM_P1;HPM_P2
2023/11/24 00:04:12;;;;;;;5.13;2.50;;;8.40;99.90;;;;;;10096067;28;20064;-68
2023/11/24 00:09:03;;;;;;;3.95;2.13;;;8.40;99.90;;;;;;10095867;28;20021;-68
2023/11/24 00:13:54;;;;;;;3.00;2.10;;;8.40;99.90;;;;;;10094902;28;20392;-68
2023/11/24 00:18:45;;;;;;;5.40;2.40;;;8.50;99.90;;;;;;10074832;28;20033;-69
2023/11/24 00:23:39;;;;;;;3.15;1.85;;;8.50;99.90;;;;;;10095250;28;20025;-67
2023/11/24 00:28:30;;;;;;;3.03;2.13;;;8.50;99.90;;;;;;10093027;28;20126;-70
2023/11/24 00:33:21;;;;;;;2.45;1.83;;;8.50;99.90;;;;;;10102016;28;20036;-68
2023/11/24 00:38:12;;;;;;;4.05;2.58;;;8.60;99.90;;;;;;10091165;28;20040;-69
2023/11/24 00:43:02;;;;;;;3.70;1.88;;;8.50;99.90;;;;;;10091661;28;20025;-68
2023/11/24 00:47:53;;;;;;;4.35;2.20;;;8.50;99.90;;;;;;10095206;28;20044;-70
2023/11/24 00:52:44;;;;;;;2.60;2.00;;;8.50;99.90;;;;;;10090527;28;20029;-68
2023/11/24 00:57:35;;;;;;;4.13;2.22;;;8.50;99.90;;;;;;10084468;28;20033;-68
2023/11/24 01:02:26;;;;;;;3.47;2.20;;;8.50;99.90;;;;;;10093805;28;20025;-68
2023/11/24 01:07:18;;;;;;;2.60;1.83;;;8.50;99.90;;;;;;10090086;28;20040;-67
2023/11/24 01:12:09;;;;;;;3.35;2.08;;;8.50;99.90;;;;;;10092131;28;20071;-67
2023/11/24 01:17:00;;;;;;;2.05;1.75;;;8.50;99.90;;;;;;10101759;28;20915;-67
2023/11/24 01:21:50;;;;;;;2.63;2.05;;;8.50;99.90;;;;;;10102509;28;20108;-68
2023/11/24 01:26:41;;;;;;;2.58;1.60;;;8.60;99.90;;;;;;10103348;28;20144;-67
2023/11/24 01:31:32;;;;;;;5.75;1.90;;;8.60;99.90;;;;;;10107838;28;20551;-68
2023/11/24 01:36:23;;;;;;;2.90;2.35;;;8.60;99.90;;;;;;10101104;28;20056;-68
2023/11/24 01:41:13;;;;;;;2.72;1.33;;;8.60;99.90;;;;;;10101152;28;20021;-70
2023/11/24 01:46:05;;;;;;;2.67;1.10;;;8.60;99.90;;;;;;10101137;28;20037;-69
2023/11/24 01:50:56;;;;;;;3.17;2.17;;;8.70;99.90;;;;;;10099376;28;20041;-69
2023/11/24 01:55:47;;;;;;;1.73;1.30;;;8.70;99.90;;;;;;10093887;28;20021;-69
2023/11/24 02:00:39;;;;;;;2.67;1.33;;;8.70;99.90;;;;;;10101322;28;20091;-68
2023/11/24 02:05:30;;;;;;;2.15;1.02;;;8.80;99.90;;;;;;10100296;28;20029;-69
2023/11/24 02:10:21;;;;;;;1.20;0.93;;;8.70;99.90;;;;;;10099955;28;20541;-68
2023/11/24 02:15:12;;;;;;;2.25;1.15;;;8.80;99.90;;;;;;10097096;28;20306;-67
2023/11/24 02:20:10;;;;;;;2.63;1.00;;;8.80;99.90;;;;;;10100318;28;20017;-66
2023/11/24 02:25:01;;;;;;;1.77;1.00;;;8.80;99.90;;;;;;10100885;28;20036;-67
2023/11/24 02:29:51;;;;;;;2.83;1.58;;;8.80;99.90;;;;;;10081791;28;20640;-67
2023/11/24 02:34:42;;;;;;;1.58;0.80;;;8.80;99.90;;;;;;10085291;28;20056;-67
2023/11/24 02:39:33;;;;;;;2.17;1.25;;;8.80;99.90;;;;;;10096934;28;20024;-67
2023/11/24 02:44:24;;;;;;;1.65;1.10;;;8.80;99.90;;;;;;10098402;28;20036;-68
2023/11/24 02:49:14;;;;;;;1.63;1.10;;;8.80;99.90;;;;;;10099700;28;20108;-68
2023/11/24 02:54:06;;;;;;;1.92;1.25;;;8.80;99.90;;;;;;10098520;28;20020;-67
2023/11/24 02:58:57;;;;;;;1.67;1.17;;;8.80;99.90;;;;;;10098998;28;20025;-68
2023/11/24 03:03:48;;;;;;;1.05;0.88;;;8.90;99.90;;;;;;10095983;28;20487;-68
2023/11/24 03:08:39;;;;;;;1.08;0.73;;;8.90;99.90;;;;;;10098741;28;20029;-68
2023/11/24 03:13:29;;;;;;;1.50;1.00;;;8.90;99.90;;;;;;10092654;28;20036;-68
2023/11/24 03:18:20;;;;;;;3.30;1.48;;;8.90;99.90;;;;;;10095803;28;20513;-68
2023/11/24 03:23:11;;;;;;;1.65;0.88;;;8.90;99.90;;;;;;10095661;28;20394;-68
2023/11/24 03:28:01;;;;;;;1.35;1.00;;;8.90;99.90;;;;;;10099261;28;20029;-68
2023/11/24 03:32:52;;;;;;;1.13;0.75;;;9.00;99.90;;;;;;10101388;28;20457;-68
2023/11/24 03:37:43;;;;;;;1.73;0.85;;;9.00;99.90;;;;;;10090610;28;20113;-69
2023/11/24 03:42:34;;;;;;;2.17;0.82;;;9.00;99.90;;;;;;10095949;28;20045;-67
2023/11/24 03:47:24;;;;;;;2.50;1.10;;;9.00;99.90;;;;;;10095678;28;20044;-67
2023/11/24 03:52:15;;;;;;;1.33;0.70;;;9.00;99.90;;;;;;10097373;28;20037;-68
2023/11/24 03:57:05;;;;;;;2.15;1.38;;;8.90;99.90;;;;;;10096350;28;20024;-68
2023/11/24 04:01:56;;;;;;;1.58;1.10;;;8.90;99.90;;;;;;10088369;28;20078;-67
2023/11/24 04:06:47;;;;;;;1.38;1.15;;;8.90;99.90;;;;;;10095326;28;20099;-67
2023/11/24 04:11:37;;;;;;;1.30;0.90;;;8.90;99.90;;;;;;10095347;28;20068;-68
2023/11/24 04:16:29;;;;;;;1.70;0.98;;;9.00;99.90;;;;;;10095344;28;20040;-67
2023/11/24 04:21:20;;;;;;;1.77;0.90;;;9.00;99.90;;;;;;10095630;28;20029;-68
2023/11/24 04:26:10;;;;;;;1.27;0.90;;;8.90;99.90;;;;;;10096676;28;20037;-67
2023/11/24 04:31:01;;;;;;;0.95;0.80;;;8.90;99.90;;;;;;10097895;28;20112;-67
2023/11/24 04:35:57;;;;;;;1.42;0.70;;;8.90;99.90;;;;;;10094671;28;20045;-68
2023/11/24 04:40:48;;;;;;;1.63;0.80;;;8.90;99.90;;;;;;10092986;28;20021;-67
2023/11/24 04:45:39;;;;;;;1.10;0.90;;;8.80;99.90;;;;;;10093019;28;20045;-69
2023/11/24 04:50:30;;;;;;;1.23;0.60;;;8.90;99.90;;;;;;10092759;28;20040;-67
2023/11/24 04:55:21;;;;;;;2.03;1.10;;;8.90;99.90;;;;;;10093833;28;20056;-67
2023/11/24 05:00:13;;;;;;;1.58;0.55;;;8.90;99.90;;;;;;10093845;28;20032;-67
2023/11/24 05:05:04;;;;;;;1.05;0.60;;;8.90;99.90;;;;;;10094010;28;20079;-67
2023/11/24 05:09:54;;;;;;;0.47;0.35;;;9.00;99.90;;;;;;10093221;28;20090;-67
2023/11/24 05:14:46;;;;;;;0.95;0.80;;;9.00;99.90;;;;;;10093342;28;20029;-67
2023/11/24 05:19:37;;;;;;;0.50;0.50;;;8.90;99.90;;;;;;10093861;28;20075;-68
2023/11/24 05:24:27;;;;;;;1.35;0.57;;;9.00;99.90;;;;;;10093682;28;20403;-70
2023/11/24 05:29:18;;;;;;;0.30;0.30;;;9.00;99.90;;;;;;10085286;28;20041;-67
2023/11/24 05:34:09;;;;;;;0.30;0.30;;;9.00;99.90;;;;;;10095774;28;20067;-67
2023/11/24 05:39:00;;;;;;;1.65;0.40;;;9.00;99.90;;;;;;10093612;28;20025;-69
2023/11/24 05:43:50;;;;;;;0.40;0.40;;;9.00;99.90;;;;;;10092041;28;20044;-68
2023/11/24 05:48:41;;;;;;;1.02;0.38;;;9.00;99.90;;;;;;10091659;28;20025;-67
2023/11/24 05:53:33;;;;;;;0.30;0.28;;;9.00;99.90;;;;;;10093167;28;20095;-69
2023/11/24 05:58:23;;;;;;;0.40;0.30;;;9.10;99.90;;;;;;10095862;28;20059;-70
2023/11/24 06:03:14;;;;;;;0.75;0.40;;;9.00;99.90;;;;;;10100645;28;20098;-68
2023/11/24 06:08:05;;;;;;;0.95;0.45;;;9.00;99.90;;;;;;10092177;28;20055;-68
2023/11/24 06:12:56;;;;;;;0.77;0.30;;;9.00;99.90;;;;;;10098887;28;20025;-69
2023/11/24 06:17:48;;;;;;;0.85;0.50;;;9.10;99.90;;;;;;10097312;28;20049;-69
2023/11/24 06:22:39;;;;;;;0.22;0.20;;;9.10;99.90;;;;;;10099219;28;20628;-69
2023/11/24 06:27:29;;;;;;;0.60;0.55;;;9.10;99.90;;;;;;10101106;28;20033;-70
2023/11/24 06:32:20;;;;;;;2.47;0.40;;;9.10;99.90;;;;;;10099505;28;20044;-71
2023/11/24 06:37:12;;;;;;;1.98;0.40;;;9.00;99.90;;;;;;10099316;28;20179;-70
2023/11/24 06:42:04;;;;;;;3.13;0.82;;;9.00;99.90;;;;;;10098961;28;20021;-70
2023/11/24 06:46:55;;;;;;;2.33;1.08;;;9.00;99.90;;;;;;10098718;28;20116;-68
2023/11/24 06:51:48;;;;;;;3.22;1.23;;;9.00;99.90;;;;;;10094108;28;20033;-68
2023/11/24 06:56:39;;;;;;;1.65;0.80;;;9.10;99.90;;;;;;10096164;28;20041;-69
2023/11/24 07:01:31;;;;;;;4.10;1.02;;;9.10;99.90;;;;;;10098738;28;20021;-68
2023/11/24 07:06:22;;;;;;;4.28;1.00;;;9.20;99.90;;;;;;10095899;28;20075;-67
2023/11/24 07:11:13;;;;;;;4.40;2.03;;;9.10;99.90;;;;;;10096852;28;20529;-68
2023/11/24 07:16:04;;;;;;;3.92;1.02;;;9.00;99.90;;;;;;10079946;28;20079;-68
2023/11/24 07:20:54;;;;;;;2.25;1.30;;;9.00;99.90;;;;;;10096955;28;20043;-70
2023/11/24 07:25:47;;;;;;;3.67;1.23;;;9.10;99.90;;;;;;10099400;28;20037;-68
2023/11/24 07:30:37;;;;;;;4.03;1.65;;;9.10;99.90;;;;;;10100696;28;20449;-68
2023/11/24 07:35:28;;;;;;;6.20;1.35;;;9.10;99.90;;;;;;10094282;28;20135;-67
2023/11/24 07:40:19;;;;;;;4.45;1.23;;;9.20;99.90;;;;;;10096669;28;20062;-67
2023/11/24 07:45:11;;;;;;;7.07;1.55;;;9.20;99.90;;;;;;10094657;28;20033;-68
2023/11/24 07:50:03;;;;;;;8.00;1.77;;;9.20;99.90;;;;;;10094130;28;20062;-66
2023/11/24 07:54:54;;;;;;;4.40;1.23;;;9.30;99.90;;;;;;10095611;28;20032;-66
2023/11/24 07:59:46;;;;;;;4.40;1.40;;;9.30;99.90;;;;;;10096319;28;20036;-65
2023/11/24 08:04:37;;;;;;;6.50;1.50;;;9.40;99.90;;;;;;10093129;28;20041;-66
2023/11/24 08:09:27;;;;;;;4.13;1.55;;;9.40;99.90;;;;;;10095196;28;20126;-64
2023/11/24 08:14:23;;;;;;;7.43;1.90;;;9.40;99.90;;;;;;10093144;28;20035;-67
2023/11/24 08:19:15;;;;;;;9.43;2.25;;;9.40;99.90;;;;;;10095524;28;20061;-67
2023/11/24 08:24:06;;;;;;;5.55;3.20;;;9.40;99.90;;;;;;10094433;28;20025;-68
2023/11/24 08:28:57;;;;;;;7.85;1.75;;;9.40;99.90;;;;;;10095110;28;20542;-67
2023/11/24 08:33:51;;;;;;;5.90;1.65;;;9.50;99.90;;;;;;10094427;28;20052;-69
2023/11/24 08:38:41;;;;;;;4.95;1.75;;;9.50;99.90;;;;;;10094039;28;20045;-65
2023/11/24 08:43:32;;;;;;;3.80;1.40;;;9.50;99.90;;;;;;10093488;28;20068;-66
2023/11/24 08:48:23;;;;;;;2.13;1.10;;;9.50;99.90;;;;;;10095686;28;20033;-66
2023/11/24 08:53:13;;;;;;;7.75;1.10;;;9.60;99.90;;;;;;10094280;28;20112;-67
2023/11/24 08:58:04;;;;;;;5.97;1.58;;;9.60;99.90;;;;;;10094452;28;20029;-68
2023/11/24 09:02:57;;;;;;;7.32;1.58;;;9.50;99.90;;;;;;10091796;28;20029;-66
2023/11/24 09:07:51;;;;;;;4.47;1.50;;;9.50;99.90;;;;;;10087117;28;20407;-66
2023/11/24 09:12:41;;;;;;;4.95;2.15;;;9.50;99.90;;;;;;10090889;28;20108;-68
2023/11/24 09:17:35;;;;;;;3.10;1.40;;;9.50;99.90;;;;;;10091783;28;20108;-67
2023/11/24 09:22:26;;;;;;;2.10;1.17;;;9.40;99.90;;;;;;10092389;28;20471;-66
2023/11/24 09:27:16;;;;;;;3.25;1.33;;;9.40;99.90;;;;;;10090380;28;20037;-67
2023/11/24 09:32:07;;;;;;;4.47;1.50;;;9.30;99.90;;;;;;10092874;28;20029;-69
2023/11/24 09:36:58;;;;;;;4.13;1.27;;;9.40;99.90;;;;;;10099660;28;20204;-66
2023/11/24 09:41:49;;;;;;;3.78;1.00;;;9.50;99.90;;;;;;10099649;28;20017;-66
2023/11/24 09:46:41;;;;;;;4.72;1.40;;;9.50;99.90;;;;;;10099247;28;20029;-68
2023/11/24 09:51:32;;;;;;;7.00;1.27;;;9.60;99.90;;;;;;10096677;28;20032;-66
2023/11/24 09:56:23;;;;;;;2.85;1.40;;;9.60;99.90;;;;;;10097999;28;20572;-67
2023/11/24 10:01:18;;;;;;;1.88;1.25;;;9.60;99.90;;;;;;10100210;28;20143;-67
2023/11/24 10:06:09;;;;;;;2.80;1.33;;;9.60;99.90;;;;;;10100123;28;20124;-67
2023/11/24 10:11:27;;;;;;;8.52;1.65;;;9.70;99.90;;;;;;10099010;28;20112;-67
2023/11/24 10:16:19;;;;;;;6.53;1.73;;;9.60;99.90;;;;;;10094577;28;20112;-69
2023/11/24 10:21:09;;;;;;;5.95;1.50;;;9.70;99.90;;;;;;10099545;28;20107;-64
2023/11/24 10:26:01;;;;;;;7.93;3.47;;;9.60;99.90;;;;;;10100551;28;20123;-65
2023/11/24 10:30:56;;;;;;;2.92;2.00;;;9.70;99.90;;;;;;10097142;28;21012;-66
2023/11/24 10:35:49;;;;;;;6.55;1.55;;;9.80;99.90;;;;;;10098723;28;20079;-66
2023/11/24 10:40:39;;;;;;;3.28;1.20;;;9.70;99.90;;;;;;10082138;28;20025;-64
2023/11/24 10:45:32;;;;;;;5.00;2.58;;;9.80;99.90;;;;;;10095807;28;20040;-65
2023/11/24 10:50:27;;;;;;;6.60;2.05;;;9.70;99.90;;;;;;10098669;28;20440;-66
2023/11/24 10:55:18;;;;;;;7.63;2.30;;;9.80;99.90;;;;;;10098103;28;20487;-66
2023/11/24 11:00:09;;;;;;;4.85;1.25;;;9.90;99.90;;;;;;10098117;28;20035;-66
2023/11/24 11:05:23;;;;;;;4.30;1.25;;;9.90;99.90;;;;;;10092059;28;20041;-65
2023/11/24 11:10:25;;;;;;;2.53;0.90;;;9.90;99.90;;;;;;10094752;28;20032;-65
2023/11/24 11:15:17;;;;;;;3.58;1.25;;;9.90;99.90;;;;;;10095528;28;20029;-64
2023/11/24 11:20:30;;;;;;;8.50;2.10;;;9.80;99.90;;;;;;10096975;28;20505;-66
2023/11/24 11:25:25;;;;;;;4.15;1.35;;;9.90;99.90;;;;;;10095287;28;20045;-71
2023/11/24 11:30:22;;;;;;;2.88;0.98;;;9.90;99.90;;;;;;10099122;28;20135;-65
2023/11/24 11:35:12;;;;;;;2.90;0.98;;;10.00;99.90;;;;;;10105643;28;20045;-66
2023/11/24 11:40:15;;;;;;;7.35;1.42;;;9.90;99.90;;;;;;10094305;28;20063;-66
2023/11/24 11:45:11;;;;;;;4.22;1.40;;;10.00;99.90;;;;;;10066030;28;20033;-66
2023/11/24 11:50:07;;;;;;;3.97;1.30;;;10.00;99.90;;;;;;10081307;28;20055;-68
2023/11/24 11:55:00;;;;;;;5.05;1.48;;;10.00;99.90;;;;;;10075962;28;20116;-68
2023/11/24 11:59:51;;;;;;;1.65;1.25;;;9.90;99.90;;;;;;10063494;28;20103;-68
2023/11/24 12:04:44;;;;;;;6.57;1.45;;;9.90;99.90;;;;;;10084350;28;20045;-70
2023/11/24 12:09:35;;;;;;;2.75;1.50;;;10.00;99.90;;;;;;10084022;28;20503;-68
2023/11/24 12:14:26;;;;;;;3.13;1.55;;;10.00;99.90;;;;;;10084571;28;20048;-68
2023/11/24 12:19:17;;;;;;;4.20;1.73;;;9.90;99.90;;;;;;10090180;28;20033;-70
2023/11/24 12:24:09;;;;;;;3.17;1.25;;;9.90;99.90;;;;;;10079421;28;20041;-69
2023/11/24 12:28:59;;;;;;;3.53;1.10;;;9.90;99.90;;;;;;10090260;28;20021;-69
2023/11/24 12:33:50;;;;;;;4.32;1.52;;;9.90;99.90;;;;;;10096604;28;20048;-73
2023/11/24 12:38:42;;;;;;;10.80;1.70;;;9.90;99.90;;;;;;10092414;28;20540;-70
2023/11/24 12:43:33;;;;;;;3.75;1.55;;;9.90;99.90;;;;;;10089311;28;20044;-70
2023/11/24 12:48:27;;;;;;;4.10;0.90;;;9.80;99.90;;;;;;10094596;28;20087;-69
2023/11/24 12:53:20;;;;;;;2.88;1.13;;;9.60;99.90;;;;;;10092383;28;20033;-67
2023/11/24 12:58:11;;;;;;;1.45;0.60;;;9.60;99.90;;;;;;10094383;28;20036;-68
2023/11/24 13:03:02;;;;;;;2.85;0.75;;;9.70;99.90;;;;;;10087871;28;20533;-69
2023/11/24 13:07:53;;;;;;;2.30;1.02;;;9.70;99.90;;;;;;10088779;28;20068;-69
2023/11/24 13:12:44;;;;;;;1.73;0.77;;;9.70;99.90;;;;;;10095518;28;20071;-69
2023/11/24 13:17:35;;;;;;;2.50;0.90;;;9.80;99.90;;;;;;10089174;28;20033;-68
2023/11/24 13:22:26;;;;;;;4.00;1.10;;;9.80;99.90;;;;;;10089418;28;20032;-71
2023/11/24 13:27:18;;;;;;;2.42;1.23;;;9.90;99.90;;;;;;10103252;28;20068;-71
2023/11/24 13:32:09;;;;;;;3.50;0.95;;;10.00;99.90;;;;;;10089785;28;20043;-70
2023/11/24 13:37:01;;;;;;;1.45;0.70;;;10.00;99.90;;;;;;10101731;28;20514;-71
2023/11/24 13:41:52;;;;;;;4.70;0.77;;;10.10;99.90;;;;;;10100601;28;20021;-71
2023/11/24 13:46:43;;;;;;;3.00;1.05;;;10.20;99.90;;;;;;10100879;28;20045;-72
2023/11/24 13:51:35;;;;;;;4.20;0.93;;;10.40;99.90;;;;;;10100873;28;20481;-73
2023/11/24 13:56:26;;;;;;;2.80;0.77;;;10.30;99.90;;;;;;10082486;28;20048;-70
2023/11/24 14:01:17;;;;;;;4.13;0.95;;;10.30;99.90;;;;;;10101629;28;20037;-72
2023/11/24 14:06:08;;;;;;;3.55;0.80;;;10.30;99.90;;;;;;10082144;28;20045;-74
2023/11/24 14:11:00;;;;;;;2.85;0.80;;;10.30;99.90;;;;;;10099821;28;20079;-71
2023/11/24 14:15:51;;;;;;;1.95;0.75;;;10.40;99.90;;;;;;10098694;28;20028;-72
2023/11/24 14:20:42;;;;;;;2.00;1.10;;;10.40;99.90;;;;;;10096536;28;20018;-69
2023/11/24 14:25:34;;;;;;;1.23;0.77;;;10.30;99.90;;;;;;10101594;28;20032;-74
2023/11/24 14:30:24;;;;;;;1.58;0.75;;;10.30;99.90;;;;;;10101380;28;20126;-73
2023/11/24 14:35:15;;;;;;;2.05;0.85;;;10.30;99.90;;;;;;10097099;28;20544;-75
2023/11/24 14:40:14;;;;;;;1.80;1.00;;;10.30;99.90;;;;;;10100777;28;20095;-67
2023/11/24 14:45:05;;;;;;;3.22;1.02;;;10.30;99.90;;;;;;10098660;28;20079;-73
2023/11/24 14:49:57;;;;;;;2.38;0.80;;;10.20;99.90;;;;;;10099511;28;20033;-71
2023/11/24 14:54:48;;;;;;;4.22;1.00;;;10.20;99.90;;;;;;10098029;28;20426;-73
2023/11/24 14:59:38;;;;;;;2.53;1.42;;;10.20;99.90;;;;;;10097639;28;20025;-72
2023/11/24 15:04:31;;;;;;;4.25;1.00;;;10.10;99.90;;;;;;10090065;28;20509;-74
2023/11/24 15:09:25;;;;;;;5.28;1.77;;;10.00;99.90;;;;;;10095646;28;20544;-71
2023/11/24 15:14:15;;;;;;;2.55;0.73;;;9.90;99.90;;;;;;10092544;28;20082;-68
2023/11/24 15:19:06;;;;;;;3.28;0.85;;;9.90;99.90;;;;;;10097041;28;20071;-72
2023/11/24 15:23:57;;;;;;;2.83;0.80;;;9.90;99.90;;;;;;10092877;28;20498;-71
2023/11/24 15:28:47;;;;;;;2.00;1.30;;;9.80;99.90;;;;;;10096774;28;20032;-76
2023/11/24 15:33:39;;;;;;;1.60;0.77;;;9.70;99.90;;;;;;10098712;28;20045;-74
2023/11/24 15:38:30;;;;;;;2.40;1.20;;;9.60;99.90;;;;;;10076731;28;20513;-76
2023/11/24 15:43:21;;;;;;;1.42;0.70;;;9.60;99.90;;;;;;10096491;28;20039;-76
2023/11/24 15:48:12;;;;;;;4.68;0.90;;;9.50;99.90;;;;;;10094683;28;20028;-74
2023/11/24 15:53:05;;;;;;;1.38;0.50;;;9.30;99.90;;;;;;10096444;28;20039;-73
2023/11/24 15:57:56;;;;;;;1.73;0.65;;;9.30;99.90;;;;;;10095694;28;20036;-74
2023/11/24 16:02:46;;;;;;;1.00;0.30;;;9.30;99.90;;;;;;10092885;28;20148;-74
2023/11/24 16:07:37;;;;;;;1.30;0.70;;;9.10;99.90;;;;;;10095793;28;20044;-70
2023/11/24 16:12:33;;;;;;;0.95;0.35;;;8.90;99.90;;;;;;10095545;28;20029;-72
2023/11/24 16:17:23;;;;;;;0.82;0.38;;;8.80;99.90;;;;;;10096399;28;20438;-70
2023/11/24 16:22:14;;;;;;;0.73;0.35;;;8.60;99.90;;;;;;10094612;28;20078;-77
2023/11/24 16:27:05;;;;;;;1.88;0.40;;;8.50;99.90;;;;;;10097112;28;20044;-69
2023/11/24 16:31:59;;;;;;;1.50;0.60;;;8.40;99.90;;;;;;10094154;28;20493;-75
2023/11/24 16:36:49;;;;;;;0.60;0.30;;;8.30;99.90;;;;;;10093940;28;20166;-73
2023/11/24 16:41:40;;;;;;;0.93;0.50;;;8.10;99.90;;;;;;10094690;28;20104;-70
2023/11/24 16:46:31;;;;;;;0.75;0.40;;;8.00;99.90;;;;;;10094623;28;20036;-71
2023/11/24 16:51:22;;;;;;;1.17;0.38;;;8.00;99.90;;;;;;10091722;28;20025;-71
2023/11/24 16:56:13;;;;;;;1.88;0.82;;;8.00;99.90;;;;;;10091601;28;20037;-75
2023/11/24 17:01:04;;;;;;;1.83;0.80;;;8.20;99.90;;;;;;10094334;28;20112;-72
2023/11/24 17:05:58;;;;;;;1.00;0.70;;;8.20;99.90;;;;;;10093505;28;20036;-75
2023/11/24 17:10:48;;;;;;;3.65;1.65;;;8.20;99.90;;;;;;10073729;28;20037;-75
2023/11/24 17:15:39;;;;;;;2.85;1.00;;;8.10;99.90;;;;;;10087012;28;20075;-72
2023/11/24 17:20:30;;;;;;;2.60;1.05;;;8.10;99.90;;;;;;10073497;28;20040;-71
2023/11/24 17:25:21;;;;;;;3.05;1.10;;;8.10;99.90;;;;;;10073458;28;20033;-70
2023/11/24 17:30:15;;;;;;;3.83;1.30;;;8.10;99.90;;;;;;10089060;28;20025;-70
2023/11/24 17:35:12;;;;;;;1.25;0.90;;;8.10;99.90;;;;;;10066122;28;20045;-70
2023/11/24 17:40:08;;;;;;;1.98;1.30;;;8.00;99.90;;;;;;10089204;28;20169;-70
2023/11/24 17:44:59;;;;;;;1.17;0.63;;;8.00;99.90;;;;;;10079678;28;20747;-73
2023/11/24 17:49:49;;;;;;;3.10;1.35;;;8.00;99.90;;;;;;10078569;28;20040;-70
2023/11/24 17:54:44;;;;;;;2.38;0.73;;;8.00;99.90;;;;;;10090145;28;20029;-71
2023/11/24 17:59:35;;;;;;;2.10;1.00;;;8.00;99.90;;;;;;10083923;28;20051;-70
2023/11/24 18:04:25;;;;;;;2.83;0.88;;;7.90;99.90;;;;;;10081868;28;20041;-73
2023/11/24 18:09:17;;;;;;;4.15;0.77;;;7.90;99.90;;;;;;10100429;28;20063;-74
2023/11/24 18:14:09;;;;;;;2.28;1.20;;;7.90;99.90;;;;;;10078516;28;20029;-70
2023/11/24 18:19:00;;;;;;;1.30;1.02;;;7.90;99.90;;;;;;10100574;28;20025;-70
2023/11/24 18:23:54;;;;;;;3.70;1.00;;;7.90;99.90;;;;;;10097977;28;20025;-70
2023/11/24 18:28:45;;;;;;;2.63;1.30;;;7.70;99.90;;;;;;10101897;28;20602;-70
2023/11/24 18:33:36;;;;;;;2.22;1.10;;;7.90;99.90;;;;;;10099269;28;20090;-72
2023/11/24 18:38:27;;;;;;;2.90;0.98;;;7.80;99.90;;;;;;10099250;28;20040;-72
2023/11/24 18:43:18;;;;;;;2.70;0.85;;;7.80;99.90;;;;;;10096438;28;20013;-71
2023/11/24 18:48:09;;;;;;;2.78;1.17;;;7.70;99.90;;;;;;10099176;28;20048;-74
2023/11/24 18:52:59;;;;;;;3.80;1.00;;;7.70;99.90;;;;;;10096094;28;20118;-72
2023/11/24 18:57:51;;;;;;;4.13;1.17;;;7.60;99.90;;;;;;10098541;28;20356;-74
2023/11/24 19:02:49;;;;;;;1.95;1.08;;;7.70;99.90;;;;;;10098252;28;20029;-77
2023/11/24 19:07:41;;;;;;;4.05;1.17;;;7.60;99.90;;;;;;10096369;28;20136;-76
2023/11/24 19:12:31;;;;;;;2.50;1.05;;;7.50;99.90;;;;;;10097285;28;20021;-73
2023/11/24 19:17:22;;;;;;;2.40;1.20;;;7.50;99.90;;;;;;10084905;28;20025;-71
2023/11/24 19:22:13;;;;;;;2.83;1.27;;;7.40;99.90;;;;;;10093773;28;20064;-71
2023/11/24 19:27:08;;;;;;;3.80;0.90;;;7.60;99.90;;;;;;10097602;28;20041;-70
2023/11/24 19:31:58;;;;;;;1.00;0.90;;;7.60;99.90;;;;;;10076858;28;20124;-70
2023/11/24 19:36:50;;;;;;;3.50;1.55;;;7.50;99.90;;;;;;10096429;28;20136;-72
2023/11/24 19:41:41;;;;;;;1.33;1.00;;;7.40;99.90;;;;;;10076030;28;20017;-70
2023/11/24 19:46:32;;;;;;;2.90;1.13;;;7.40;99.90;;;;;;10093817;28;20041;-70
2023/11/24 19:51:23;;;;;;;2.38;1.38;;;7.40;99.90;;;;;;10095794;28;20017;-71
2023/11/24 19:56:14;;;;;;;1.90;1.42;;;7.40;99.90;;;;;;10096221;28;20029;-72
2023/11/24 20:01:06;;;;;;;4.20;1.85;;;7.40;99.90;;;;;;10094752;28;20036;-74
2023/11/24 20:05:59;;;;;;;3.70;1.30;;;7.30;99.90;;;;;;10095585;28;20037;-74
2023/11/24 20:10:52;;;;;;;2.10;1.40;;;7.30;99.90;;;;;;10093839;28;20024;-70
2023/11/24 20:15:43;;;;;;;1.83;0.93;;;7.30;99.90;;;;;;10076982;28;20028;-71
2023/11/24 20:20:38;;;;;;;2.47;1.23;;;7.40;99.90;;;;;;10095059;28;20435;-75
2023/11/24 20:25:28;;;;;;;5.15;0.88;;;7.40;99.90;;;;;;10096092;28;20099;-70
2023/11/24 20:30:20;;;;;;;2.67;0.90;;;7.40;99.90;;;;;;10095662;28;20560;-70
2023/11/24 20:35:14;;;;;;;4.50;0.80;;;7.40;99.90;;;;;;10095660;28;20060;-71
2023/11/24 20:40:06;;;;;;;3.10;1.20;;;7.40;99.90;;;;;;10093941;28;20009;-70
2023/11/24 20:44:57;;;;;;;2.25;0.47;;;7.40;99.90;;;;;;10076762;28;20376;-70
2023/11/24 20:49:50;;;;;;;2.33;0.95;;;7.30;99.90;;;;;;10094834;28;20510;-68
2023/11/24 20:54:41;;;;;;;3.67;1.00;;;7.40;99.90;;;;;;10092762;28;20051;-71
2023/11/24 20:59:34;;;;;;;3.08;0.93;;;7.40;99.90;;;;;;10091853;28;20078;-69
2023/11/24 21:04:25;;;;;;;3.28;1.50;;;7.30;99.90;;;;;;10093869;28;20490;-70
2023/11/24 21:09:16;;;;;;;2.90;1.02;;;7.20;99.90;;;;;;10094165;28;20131;-71
2023/11/24 21:14:10;;;;;;;1.88;0.75;;;7.20;99.90;;;;;;10093011;28;20082;-71
2023/11/24 21:19:00;;;;;;;0.98;0.57;;;7.10;99.90;;;;;;10090880;28;20043;-75
2023/11/24 21:23:51;;;;;;;4.05;1.20;;;7.10;99.90;;;;;;10093268;28;20025;-71
2023/11/24 21:28:42;;;;;;;1.80;0.77;;;7.10;99.90;;;;;;10076952;28;20033;-70
2023/11/24 21:33:35;;;;;;;2.78;0.65;;;7.10;99.90;;;;;;10083852;28;20052;-72
2023/11/24 21:38:26;;;;;;;4.00;0.93;;;7.20;99.90;;;;;;10084245;28;20029;-72
2023/11/24 21:43:17;;;;;;;2.65;1.10;;;7.10;99.90;;;;;;10102048;28;20104;-73
2023/11/24 21:48:12;;;;;;;1.75;0.75;;;7.10;99.90;;;;;;10099812;28;20048;-70
2023/11/24 21:53:03;;;;;;;1.30;1.02;;;7.10;99.90;;;;;;10091197;28;20022;-71
2023/11/24 21:57:53;;;;;;;1.13;0.60;;;7.00;99.90;;;;;;10077384;28;20041;-73
2023/11/24 22:02:44;;;;;;;1.45;0.63;;;6.90;99.90;;;;;;10097011;28;20108;-75
2023/11/24 22:07:38;;;;;;;2.15;1.00;;;7.00;99.90;;;;;;10098738;28;20049;-73
2023/11/24 22:12:32;;;;;;;0.82;0.52;;;6.90;99.90;;;;;;10079569;28;20033;-71
2023/11/24 22:17:23;;;;;;;1.52;1.42;;;6.70;99.90;;;;;;10099151;28;20029;-73
2023/11/24 22:22:13;;;;;;;1.05;0.65;;;6.60;99.90;;;;;;10099782;28;20032;-72
2023/11/24 22:27:05;;;;;;;3.20;0.47;;;6.60;99.90;;;;;;10100086;28;20037;-70
2023/11/24 22:32:02;;;;;;;1.30;0.73;;;6.60;99.90;;;;;;10098915;28;20063;-74
2023/11/24 22:36:53;;;;;;;0.98;0.63;;;6.70;99.90;;;;;;10100219;28;20053;-70
2023/11/24 22:41:45;;;;;;;1.30;0.65;;;6.60;99.90;;;;;;10099350;28;20033;-70
2023/11/24 22:46:37;;;;;;;1.73;0.75;;;6.60;99.90;;;;;;10099785;28;20078;-75
2023/11/24 22:51:27;;;;;;;1.38;1.10;;;6.70;99.90;;;;;;10099600;28;20064;-71
2023/11/24 22:56:20;;;;;;;3.67;1.00;;;6.70;99.90;;;;;;10100803;28;20482;-71
2023/11/24 23:01:10;;;;;;;2.80;0.68;;;6.70;99.90;;;;;;10079394;28;20028;-71
2023/11/24 23:06:01;;;;;;;1.95;0.50;;;6.60;99.90;;;;;;10098389;28;20494;-69
2023/11/24 23:10:52;;;;;;;1.10;0.40;;;6.60;99.90;;;;;;10098389;28;20035;-70
2023/11/24 23:15:43;;;;;;;0.68;0.60;;;6.70;99.90;;;;;;10096388;28;20041;-75
2023/11/24 23:20:35;;;;;;;1.77;1.10;;;6.60;99.90;;;;;;10096959;28;20029;-71
2023/11/24 23:25:25;;;;;;;1.88;0.60;;;6.50;99.90;;;;;;10099337;28;20045;-70
2023/11/24 23:30:17;;;;;;;3.92;0.80;;;6.60;99.90;;;;;;10098369;28;20024;-71
2023/11/24 23:35:12;;;;;;;2.30;0.80;;;6.60;99.90;;;;;;10079574;28;20053;-71
2023/11/24 23:40:13;;;;;;;3.33;0.70;;;6.60;99.90;;;;;;10097823;28;20525;-70
2023/11/24 23:45:04;;;;;;;1.20;0.40;;;6.60;99.90;;;;;;10074180;28;20037;-70
2023/11/24 23:49:55;;;;;;;2.42;0.80;;;6.60;99.90;;;;;;10097677;28;20072;-69
2023/11/24 23:54:48;;;;;;;1.23;0.60;;;6.60;99.90;;;;;;10098457;28;20736;-69
